Christman Field Latest Observations
Date Time
MST
Temp
°F
RH
%
DewPt
°F
Wind
mph
Dir
°
Gust
mph
Dir
°
Press
in Hg
Solar
W/m^2
Prec
in
2019-12-06 03:15 26.7 94.2 25.2 4.6 342 5.7 342 24.979 0.0 0.00
2019-12-06 03:10 27.1 93.7 25.5 6.0 357 7.9 336 24.981 0.0 0.00
2019-12-06 03:05 26.8 96.2 25.9 7.4 337 8.8 327 24.981 0.0 0.00
2019-12-06 03:00 26.0 96.8 25.2 8.2 327 9.4 323 24.982 0.1 0.00
2019-12-06 02:55 26.0 96.9 25.3 7.6 325 8.0 321 24.982 0.1 0.00
2019-12-06 02:50 26.2 97.3 25.6 6.5 325 7.4 323 24.983 0.1 0.00
2019-12-06 02:45 26.4 97.4 25.8 5.9 309 6.6 311 24.982 0.1 0.00
2019-12-06 02:40 26.2 97.4 25.6 6.5 311 7.6 313 24.983 0.1 0.00
2019-12-06 02:35 26.9 97.5 26.3 7.2 312 7.7 316 24.984 0.1 0.00
2019-12-06 02:30 27.1 97.8 26.5 7.2 319 7.7 321 24.982 0.1 0.00
2019-12-06 02:25 27.4 98.0 26.9 6.3 316 7.1 319 24.983 0.1 0.00
2019-12-06 02:20 27.3 98.0 26.8 5.5 317 7.1 317 24.981 0.1 0.00
2019-12-06 02:15 26.8 98.1 26.3 4.7 308 5.3 312 24.982 0.1 0.00
2019-12-06 02:10 26.8 98.0 26.3 4.8 310 5.3 323 24.983 0.1 0.00
2019-12-06 02:05 26.7 98.0 26.2 4.9 315 5.6 334 24.981 0.1 0.00
2019-12-06 02:00 26.7 98.0 26.3 5.7 336 6.0 330 24.979 0.1 0.00
2019-12-06 01:55 26.4 97.9 25.9 5.7 328 6.4 332 24.980 0.1 0.00
2019-12-06 01:50 27.4 97.9 26.9 5.8 332 6.7 338 24.980 0.1 0.00
2019-12-06 01:45 28.3 98.2 27.9 5.9 338 7.2 336 24.978 0.1 0.00
2019-12-06 01:40 27.2 98.3 26.8 4.2 336 5.0 336 24.980 0.1 0.00
2019-12-06 01:35 26.9 98.0 26.4 4.5 335 5.6 344 24.978 0.1 0.00
2019-12-06 01:30 27.0 98.0 26.5 1.9 270 4.4 289 24.977 0.1 0.00
2019-12-06 01:25 26.9 97.9 26.4 3.3 326 4.4 329 24.976 0.1 0.00
2019-12-06 01:20 27.4 97.8 26.9 4.3 329 4.6 349 24.976 0.0 0.00
2019-12-06 01:15 28.3 97.9 27.8 4.7 349 5.0 349 24.976 0.0 0.00
2019-12-06 01:10 28.7 98.0 28.2 4.6 348 5.2 343 24.975 0.0 0.00
2019-12-06 01:05 28.6 97.9 28.0 3.4 330 3.9 321 24.975 0.0 0.00
2019-12-06 01:00 28.7 97.8 28.1 2.6 314 3.1 314 24.978 0.0 0.00
2019-12-06 00:55 29.0 97.9 28.5 3.1 341 3.6 354 24.977 0.0 0.00
2019-12-06 00:50 29.7 97.8 29.2 3.0 354 3.7 1 24.979 0.0 0.00
CIRA

Cooperative Institute for Research in the Atmosphere

Modeling Systems Research


Much of the Regional to Global-scale Modeling work done at CIRA is performed by approximately 20 CIRA researchers who are integrated into various collaborative research activities within the Global Systems Division (GSD) at the NOAA Earth System Research Laboratory (ESRL) in Boulder. They conduct research and development to provide NOAA and the nation with observing, prediction, computer, and information systems that deliver environmental products ranging from local to global predictions of short-range, high impact weather and air quality events to longer-term intra-seasonal climate forecasts.

 

CIRA researchers and scientists, in partnership with GSD, Global Monitoring Division (GMD), and Physical Sciences Division (PSD) scientists, conceive, design, and test the forecast impact of meteorological observing systems, with an emphasis on integrated observing systems employing a large range of measurement systems. They develop modeling and assimilation techniques and information systems to improve the short-range weather forecasting necessary for severe weather watches and warnings, heavy precipitation events, water management, air quality forecasting, and fire weather prediction. They develop the global Earth system modeling and assimilation techniques needed for global chemical transport and regional climate simulations.

 

Together with our partners at the NOAA ESRL, CIRA scientists and researchers investigate high-performance computer architectures to handle the enormous computational demands of environmental models and develop environmental information systems to support commerce, transportation, emergency management, and other societal needs. They support NOAA in high-performance computing through new computing technology and improved software engineering practices while investigating advanced computer architecture to handle the enormous computational demands of environmental models.

 

In other research, our scientists use models to improve the representation of clouds and land surface processes and to investigate the response of regional hydrology to global climate change. These impact studies help facilitate the development and enhancement of models for both operational forecasting and research applications. They help create tools that allow scientists to obtain more information from observations and simulated observations and conduct weather analysis, numerical forecasting, and ensemble forecasting.